PWS Bacti Results for samples received in the past 30 days
n system name pws id Lab # collected Date Received Site id Site Location collected by purpose Total Coliform E Coli
N N E WHITE COUNTY PUBLIC FACILITIES BOARD 1069 1737913 2082017 02/09/2017 1069B003 200 W ELM, RUSSELL FIRE STA 2ND FR. SOUT DW REG Total Coliform Absent E Coli Absent
N N E WHITE COUNTY PUBLIC FACILITIES BOARD 1069 1737909 2082017 02/09/2017 1069B001 101 WOODLAWN RD, PUMP STA 2ND FR. SOUTH DW REG Total Coliform Absent E Coli Absent
N N E WHITE COUNTY PUBLIC FACILITIES BOARD 1069 1736021 2012017 02/01/2017 1069B002 1959 LAKE RD, WATER PLANT 2ND FR. SOUTH DW REG Total Coliform Absent E Coli Absent
N N GARLAND CO REG WATER DIST 867 1739199 2162017 02/17/2017 867B113 REDDEN TRAIL, JF REG Total Coliform Absent E Coli Absent
N N GARLAND CO REG WATER DIST 867 1739198 2162017 02/17/2017 867B112 738 LAKE OUACHITA TR, JF REG Total Coliform Absent E Coli Absent
N N GARLAND CO REG WATER DIST 867 1739197 2162017 02/17/2017 867B111 HWY 227 MASTER METER, JF REG Total Coliform Absent E Coli Absent
N N GARLAND CO REG WATER DIST 867 1736444 2022017 02/03/2017 867B115 100 MCGREW LANE, JF REG Total Coliform Absent E Coli Absent
N N GARLAND CO REG WATER DIST 867 1736442 2022017 02/03/2017 867B114 202 MCCONNELL RD, JF REG Total Coliform Absent E Coli Absent
N N GARLAND CO REG WATER DIST 867 1736418 2022017 02/03/2017 867B116 503 BLACKSNAKE RD, JF REG Total Coliform Absent E Coli Absent
N N GARLAND CO REG WATER DIST 867 1736417 2022017 02/03/2017 867B117 503 BLACKSNAKE RD, JF REG Total Coliform Absent E Coli Absent
N NAIL-SWAIN WATER ASSOCIATION 856 1739176 2162017 02/17/2017 856B015 12829 AR HWY 16, ILLEGIBLE REG Total Coliform Absent E Coli Absent
N NAIL-SWAIN WATER ASSOCIATION 856 1738550 2132017 02/14/2017 856ZA5 3 IN BLOW OFF CO RD 5411, AARON JENKS NI

N NAIL-SWAIN WATER ASSOCIATION 856 1738545 2132017 02/14/2017 856ZA4 END 3 IN CO RD 5391, AARON JENKS NI

N NAIL-SWAIN WATER ASSOCIATION 856 1738529 2132017 02/14/2017 856ZA3 JUNCTION ROAD HALL CO RD 9370 , FALLSVILLE AARON ILLEGIBLE NI Total Coliform Absent E Coli Absent
N NAIL-SWAIN WATER ASSOCIATION 856 1738437 2132017 02/14/2017 39B008 HUSKINS DR AND GLASGOW RD , WILLIAM PATIENCE REG Total Coliform Absent E Coli Absent
N NAIL-SWAIN WATER ASSOCIATION 856 1735715 1302017 01/31/2017 856B021 12640 AR HWY 16, K STONE REG Total Coliform Absent E Coli Absent
N NAIL-SWAIN WATER ASSOCIATION 856 1735714 1302017 01/31/2017 856B015 12829 AR HWY 16, K STONE REG Total Coliform Absent E Coli Absent
N NASHVILLE RURAL WATER ASSOC 805 1738058 2092017 02/10/2017 805B005 BERL MCCLURE , PO BOX-134-NASHVILLE RYAN STUCKEY REG Total Coliform Absent E Coli Absent
N NASHVILLE RURAL WATER ASSOC 805 1738057 2092017 02/10/2017 805B007 MCCASKILL POST OFFICE, RYAN STUCKEY REG Total Coliform Absent E Coli Absent
N NASHVILLE RURAL WATER ASSOC 805 1738056 2092017 02/10/2017 805B008 HOWARD CO CHRISTIAN SCHOOL, RYAN STUCKEY REG Total Coliform Absent E Coli Absent
N NASHVILLE RURAL WATER ASSOC 805 1738055 2092017 02/10/2017 805B010 NCC 283 COUNTRY CLUB RD, RYAN STUCKEY REG Total Coliform Absent E Coli Absent
N NASHVILLE WATERWORKS 244 1737168 2072017 02/08/2017 244B015 805 FRANKLIN STREET, T EUDY REG Total Coliform Absent E Coli Absent
N NASHVILLE WATERWORKS 244 1737167 2072017 02/08/2017 244B006 715 S FRONT ST , T EUDY REG Total Coliform Absent E Coli Absent
N NASHVILLE WATERWORKS 244 1737166 2072017 02/08/2017 244B001 516 N 6TH ST , T EUDY REG Total Coliform Absent E Coli Absent
N NE MISSISSIPPI CO WATER ASSOC 673 1738592 12132017 02/14/2017 673B001 6348 NCR 823, R BRADLEY REG FORM POST DATED
N NE MISSISSIPPI CO WATER ASSOC 673 1738591 2132017 02/14/2017 673B006 5189 EAST STATE HWY 150, R BRADLEY REG Total Coliform Absent E Coli Absent
N NE MISSISSIPPI CO WATER ASSOC 673 1738590 2132017 02/14/2017 673B003 6046 NORTH STATE HWY 137, R BRADLEY REG Total Coliform Absent E Coli Absent
N NE YELL COUNTY WATER ASSOC 697 1739379 2212017 02/22/2017 697B007 HICKEY FARM , SY REG Total Coliform Absent E Coli Absent
N NE YELL COUNTY WATER ASSOC 697 1739378 2212017 02/22/2017 697B002 JACK THOMAS FARM , SY REG Total Coliform Absent E Coli Absent
N NE YELL COUNTY WATER ASSOC 697 1739377 2212017 02/22/2017 697B006 TANK SITE #3 , SY REG Total Coliform Absent E Coli Absent
N NE YELL COUNTY WATER ASSOC 697 1737860 2082017 02/09/2017 697ZA3 TEMPORARY TANK MT NEBO, DARDANELLE SY SPC Total Coliform Absent E Coli Absent
N NE YELL COUNTY WATER ASSOC 697 1737306 2072017 02/08/2017 697ZA2 TEMPORARY TANK MT. NEBO, DARDANELLE SY SPC Total Coliform Absent E Coli Absent
N NE YELL COUNTY WATER ASSOC 697 1737248 2072017 02/08/2017 697B001 MAIN PUMP STATION , SY REG Total Coliform Absent E Coli Absent
N NE YELL COUNTY WATER ASSOC 697 1737247 2072017 02/08/2017 697B003 TANK SITE #2 , SY REG Total Coliform Absent E Coli Absent
N NE YELL COUNTY WATER ASSOC 697 1737246 2072017 02/08/2017 697B004 #1 PUMP STATION , MT NEBO SY REG Total Coliform Absent E Coli Absent
N NE YELL COUNTY WATER ASSOC 697 1737245 2072017 02/08/2017 697B002 JACK THOMAS FARM , SY REG Total Coliform Absent E Coli Absent
N NEAPWA 1070 1738766 2132017 02/15/2017 1070B005 HOXIE MM, 509 SOUTHWEST LAWRENCE ST JOSPEH JANSEN REG SAMPLE TOO OLD
N NEAPWA 1070 1738765 2132017 02/15/2017 1070B004 LCRWD MM, HWY 412 & HWY 63 JOSPEH JANSEN REG SAMPLE TOO OLD
N NEAPWA 1070 1738764 2132017 02/15/2017 1070B006 WALNUT RIDGE MM, 502 WEST FREE ST JOSPEH JANSEN REG SAMPLE TOO OLD
N NEAPWA 1070 1736204 2012017 02/02/2017 1070B002 NEAPWA WTP LAB SINK, 1835 HWY 361 JOSEPH JANSEN REG Total Coliform Absent E Coli Absent
N NEAPWA 1070 1736203 2012017 02/02/2017 1070B003 PORTIA MM, 209 LAWRENCE DRIVE EXT JOSEPH JANSEN REG Total Coliform Absent E Coli Absent
N NEW HOPE WATER ASSOCIATION 683 1739140 2162017 02/17/2017 683B001 DOLAS WARE , 6876 HAYNESVILLE HWY ELDORADO PH REG Total Coliform Absent E Coli Absent
N NEW HOPE WATER ASSOCIATION 683 1739139 2162017 02/17/2017 683B002 HOPEWELL PAR , 3027 HOPEWELL RD JUNCTION PH REG Total Coliform Absent E Coli Absent
N NEW HOPE WATER ASSOCIATION 683 1739138 2162017 02/17/2017 683B003 ED PIERCE , 1156 THREE CREEKS RD J.C. PH REG Total Coliform Absent E Coli Absent
N NEW LONDON WATER ASSOCIATION 557 1735822 1302017 01/31/2017 557B002 JOHN D COLEMAN, 3043 NEW LONDON RD STRONG, AR CHASE S REG Total Coliform Absent E Coli Absent
N NEW LONDON WATER ASSOCIATION 557 1735821 1302017 01/31/2017 557B001 H O HINES, 810 WINCHESTER RD STRONG, AR CHASE S REG Total Coliform Absent E Coli Absent
N NEW LONDON WATER ASSOCIATION 557 1735820 1302017 01/31/2017 557B003 WINFRED WINANS, 906 NEW LONDON RD STRONG, AR CHASE S REG Total Coliform Absent E Coli Absent
N NEWARK WATERWORKS 248 1739372 2212017 02/22/2017 248B007 , 2120 Galloway Rd A OWENS REG Total Coliform Absent E Coli Absent
N NEWARK WATERWORKS 248 1739371 2212017 02/22/2017 248B003 610 LOCUST ST , A OWENS REG Total Coliform Absent E Coli Absent
N NEWARK WATERWORKS 248 1739370 2212017 02/22/2017 248B006 , 190 S Oak Street A OWENS REG Total Coliform Absent E Coli Absent
N NEWPORT WATERWORKS 264 1736607 2062017 02/07/2017 264B012 619 WALNUT ST-RESIDENCE , MR REG Total Coliform Absent E Coli Absent
N NEWPORT WATERWORKS 264 1736606 2062017 02/07/2017 264B011 1714 DEWEY ST-RESIDENCE , MR REG Total Coliform Absent E Coli Absent
N NEWPORT WATERWORKS 264 1736605 2062017 02/07/2017 264B014 12 LAKESIDE LN-RESIDENCE , MR REG Total Coliform Absent E Coli Absent
N NEWPORT WATERWORKS 264 1736604 2062017 02/07/2017 264B015 708 WALLACE ST-RESIDENCE , MR REG Total Coliform Absent E Coli Absent
N NEWPORT WATERWORKS 264 1736603 2062017 02/07/2017 264B013 NEWPORT WTP , 100 LAKESHORE DR MR REG Total Coliform Absent E Coli Absent
N NORFORK WATERWORKS 035 1736727 2062017 02/07/2017 35B007 711 RIVERVIEW DRIVE, ILLEGIBLE REG Total Coliform Absent E Coli Absent
N NORFORK WATERWORKS 035 1736726 2062017 02/07/2017 35B004 59 FISHERMAN ST, ILLEGIBLE REG Total Coliform Absent E Coli Absent
N NORFORK WATERWORKS 035 1736725 2062017 02/07/2017 35B006 49 CITY HALL CIRCLE, ILLEGIBLE REG Total Coliform Absent E Coli Absent
N NORMAN WATERWORKS 391 1737934 2082017 02/09/2017 391B002 TOM SWINDLE , 426 GASTON RD CT REG Total Coliform Absent E Coli Absent
N NORMAN WATERWORKS 391 1737868 2082017 02/09/2017 391B004 LEON VINES , 3479 HWY 27S CT REG Total Coliform Absent E Coli Absent
N NORPHLET WATERWORKS 554 1739479 2212017 02/22/2017 554B002 UNITED STATES POSTAL OFFICE , 101 VINEYARD ST RR REG Total Coliform Absent E Coli Absent
N NORPHLET WATERWORKS 554 1739478 2212017 02/22/2017 554B005 CURT DEES , 308 N TATE ST. RR REG Total Coliform Absent E Coli Absent
N NORPHLET WATERWORKS 554 1739477 2212017 02/22/2017 554B001 CORNER ONE STOP GRO. , 424 TEXAS ST. RR REG Total Coliform Absent E Coli Absent
N NORTH CARBON CITY WATER ASSOC 331 1737851 2082017 02/09/2017 331B006 1944 N CARBON CITY RD, A LOONEY REG Total Coliform Absent E Coli Absent
N NORTH CROSSETT UTILITIES 022 1738723 2142017 02/15/2017 22B004 CHERRY MORRISON , 900 FAIRVIEW JM REG Total Coliform Absent E Coli Absent
N NORTH CROSSETT UTILITIES 022 1738722 2142017 02/15/2017 22B003 HOMER COURSON , 1331 HWY 52 WEST JM REG Total Coliform Absent E Coli Absent
N NORTH CROSSETT UTILITIES 022 1738721 2142017 02/15/2017 22B002 FRED HIPP JR , 435 BINNS LOOP JM REG Total Coliform Absent E Coli Absent
N NORTH CROSSETT UTILITIES 022 1738720 2142017 02/15/2017 22B001 UTILITY OFFICE , 1645 HWY 52 WEST JM REG Total Coliform Absent E Coli Absent
N NORTH EAST CROSSETT WATER ASSN 023 1738726 2142017 02/15/2017 23B001 RAY LOCKALA , 190 RAY LOCKALA RD JM REG Total Coliform Absent E Coli Absent
N NORTH EAST CROSSETT WATER ASSN 023 1738725 2142017 02/15/2017 23B002 FRANK SKENDER , 302 ASHLEY 20 JM REG Total Coliform Absent E Coli Absent
N NORTH EAST CROSSETT WATER ASSN 023 1738724 2142017 02/15/2017 23B003 RONALD RICE , 371 ASHLEY 20 JM REG Total Coliform Absent E Coli Absent
N NORTH EAST PUBLIC WATER AUTH 033 1736661 2062017 02/07/2017 33B006 82 MAGNOLIA RIDGE DR, JESSE GILLIAM REG Total Coliform Absent E Coli Absent
N NORTH EAST PUBLIC WATER AUTH 033 1736660 2062017 02/07/2017 33B018 284 GREEN VIEW DRIVE, JESSE GILLIAM REG Total Coliform Absent E Coli Absent
N NORTH HOWARD RURAL WATER ASSOCIATION 1075 1739595 2212017 02/22/2017 1075B007 16162 HWY 278W, DIERKS, AR 71833 TR REG Total Coliform Absent E Coli Absent
N NORTH HOWARD RURAL WATER ASSOCIATION 1075 1736413 2022017 02/03/2017 1075B006 14826 HWY 278W, DIERKS, AR 71833 TR REG Total Coliform Absent E Coli Absent
N NORTH HOWARD RURAL WATER ASSOCIATION 1075 1736412 2022017 02/03/2017 1075B001 196 JACKSON RD, DIERKS TR REG Total Coliform Absent E Coli Absent
N NORTH JACKSON CO WATER ASSN 767 1737994 2092017 02/10/2017 767B005 9709 HWY 17 NORTH, JHV REG Total Coliform Absent E Coli Absent
N NORTH JACKSON CO WATER ASSN 767 1737993 2092017 02/10/2017 767B002 24827 HWY 37 NORTH, JHV REG Total Coliform Absent E Coli Absent
N NORTH JACKSON CO WATER ASSN 767 1737992 2092017 02/10/2017 767B003 1113 HWY 224 EAST, JHV REG Total Coliform Absent E Coli Absent
N NORTH LAGRUE WATER ASSOC 012 1739392 2212017 02/22/2017 12B003 WAYNE FORREST , RVC REG Total Coliform Absent E Coli Absent
N NORTH LAGRUE WATER ASSOC 012 1739391 2212017 02/22/2017 12B006 48 RASCO LANE, RVC REG Total Coliform Absent E Coli Absent
N NORTH LAGRUE WATER ASSOC 012 1739390 2212017 02/22/2017 12B004 ROGER KAGEBIN , RVC REG Total Coliform Absent E Coli Absent
N NORTH PIKE CO RURAL WATER ASSN 826 1739593 2212017 02/22/2017 826B006 47 CLAUSSEN RD, 47 CLAUSSEN RD, LANGLEY TIM REG Total Coliform Absent E Coli Absent
N NORTH PIKE CO RURAL WATER ASSN 826 1736836 2062017 02/07/2017 826B002 2614 HWY 27 NORTH, 2614 HWY 27 NORTH, KIRBY TIM REG Total Coliform Absent E Coli Absent
N NORTH PIKE CO RURAL WATER ASSN 826 1736835 2062017 02/07/2017 826B001 755 HWY 8 EAST, 755 HWY 8 EAST, ROSEBORO TIM REG Total Coliform Absent E Coli Absent
N NORTH WHITE CO RURAL WATER PFB 583 1738061 2092017 02/10/2017 583B008 NOWCO FIRE STATION #3 , HWY 157 S SELLERS REG Total Coliform Absent E Coli Absent
N NORTH WHITE CO RURAL WATER PFB 583 1738060 2092017 02/10/2017 583B004 232 BLISS RD , JUDSONIA, AR 72081 S SELLERS REG Total Coliform Absent E Coli Absent
N NORTH WHITE CO RURAL WATER PFB 583 1738059 2092017 02/10/2017 583B001 ROUTE 2 BOX 914 , JUDSONIA, AR 72081 S SELLERS REG Total Coliform Absent E Coli Absent
N NORTH WHITE CO RURAL WATER PFB 583 1736438 2022017 02/03/2017 583B009 JACOBS STORE , 5214 HWY 157 S SELLERS REG Total Coliform Absent E Coli Absent
N NORTH WHITE CO RURAL WATER PFB 583 1736437 2022017 02/03/2017 583B006 184 FERREN RD , JUDSONIA S SELLERS REG Total Coliform Absent E Coli Absent
N NORTH WHITE CO RURAL WATER PFB 583 1736436 2022017 02/03/2017 583B014 APPRX. 387 P. REAPER , PRINCE REAPER & ARMSTRONG S SELLERS REG Total Coliform Absent E Coli Absent
N NORTHEAST DEWITT WATER ASSOC 007 1739395 2212017 02/22/2017 7B005 SCOTT LYNCH , RVC REG Total Coliform Absent E Coli Absent
N NORTHEAST DEWITT WATER ASSOC 007 1739394 2212017 02/22/2017 7B004 CHARLES MCBROOM , RVC REG Total Coliform Absent E Coli Absent
N NORTHEAST DEWITT WATER ASSOC 007 1739393 2212017 02/22/2017 7B003 H C RUFFIN , RVC REG Total Coliform Absent E Coli Absent
N NORTHERN OHIO WATER ASSOC 175 1739532 2212017 02/22/2017 175B003 35* 26' N 90' 32' W, 32770 BROADMOUTH RD BURGOS REG Total Coliform Absent E Coli Absent
N NORTHERN OHIO WATER ASSOC 175 1739531 2212017 02/22/2017 175B002 35*30' N 90*27' W, 30682 ASTON RD BURGOS REG Total Coliform Absent E Coli Absent
N NORTHERN OHIO WATER ASSOC 175 1739530 2212017 02/22/2017 175B001 LAT 35*31'N LONG 90*26'W, 4493 HWY 75N BURGOS REG Total Coliform Absent E Coli Absent
N NORTHERN OHIO WATER ASSOC 175 1735750 1302017 01/31/2017 175B001 LAT 35*31'N LONG 90*26'W, 4493 HWY 75N BURGOS REG Total Coliform Absent E Coli Absent
N NORTHERN OHIO WATER ASSOC 175 1735749 1302017 01/31/2017 175B003 35* 26' N 90' 32' W, 32770 BROADMOUTH RD BURGOS REG Total Coliform Absent E Coli Absent
N NORTHERN OHIO WATER ASSOC 175 1735748 1302017 01/31/2017 175B002 35*30' N 90*27' W, 30682 ASTON RD BURGOS REG Total Coliform Absent E Coli Absent
N NW ARKANSAS REGIONAL AIRPORT N0188 1739256 2162017 02/17/2017 N0188ZA3 NWAR REG AIRPORT TANK SITE, JC SPC Total Coliform Absent E Coli Absent
N NW ARKANSAS REGIONAL AIRPORT N0188 1739162 2162017 02/17/2017 N0188B008 12399 TOWER DR, 12399 TOWER DR MM REG Total Coliform Absent E Coli Absent
N NW ARKANSAS REGIONAL AIRPORT N0188 1739161 2162017 02/17/2017 N0188B007 12005 TOWER DR, 12005 TOWER DR MM REG Total Coliform Absent E Coli Absent
N NW ARKANSAS REGIONAL AIRPORT N0188 1738996 2152017 02/16/2017 N0188ZA2 TANK SITE, JC SPC Total Coliform Absent E Coli Absent
N NWS INC. WF0317 LITTLE ROCK 1198 1739307 2162017 02/17/2017 1198B003 501 S BOWMAN RD DI WATER, LITTLE ROCK AR 72211 LEWIS REG Total Coliform Absent E Coli Absent
N NWS INC. WF0317 LITTLE ROCK 1198 1739306 2162017 02/17/2017 1198B002 501 S BOWMAN RD RO WATER - RI, LITTLE ROCK AR 72211 LEWIS REG Total Coliform Absent E Coli Absent
N NWS INC. WF0317 LITTLE ROCK 1198 1739305 2162017 02/17/2017 1198B001 501 S BOWMAN RD RO WATER - LE, LITTLE ROCK AR 72211 LEWIS REG Total Coliform Absent E Coli Absent
N NWS INC. WF0330 FAYETTEVILLE 1220 1736150 2012017 02/02/2017 1220B001 RO WATER - LEFT, FAYETTEVILLE AEU NI Total Coliform Absent E Coli Absent
N NWS INC. WF0330 FAYETTEVILLE 1220 1736149 2012017 02/02/2017 1220B002 RO WATER - RIGHT, FAYETTEVILLE AEU NI Total Coliform Absent E Coli Absent